ADDS METAR Data INFO
IDs: Format: Raw Decoded Include TAF

Data at: 0209 UTC 14 Dec 2017

PASC 140153Z 06027KT 1/2SM R06/2800V3500FT -SN BLSN VV005 M12/M13 A2988 RMK AO2 PK WND 06035/0140 SLP118 P0000 T11221133
PASC 140053Z 07028KT 1/2SM R06/2400V3500FT -SN BLSN VV006 M12/M13 A2990 RMK AO2 PK WND 07035/0004 SLP128 P0000 T11221133
PASC 132353Z 07029G35KT 1/2SM R06/2400V2800FT -SN BLSN VV005 M12/M13 A2993 RMK AO2 PK WND 07035/2353 SLP135 P0000 60000 T11221133 11111 21122 56014
PASC 132253Z 07028G34KT 1/2SM R06/2600V3500FT -SN BLSN VV005 M12/M13 A2994 RMK AO2 PK WND 07034/2244 SLP140 P0000 T11221133
PASC 132153Z 07027KT 3/4SM R06/3000V4000FT -SN BLSN BR OVC006 M12/M13 A2997 RMK AO2 PK WND 07030/2149 SLP149 P0000 T11171128
PASC 132053Z 07024KT 3/4SM R06/4000V5000FT -SN BLSN BR OVC006 M12/M13 A2998 RMK AO2 PK WND 07032/2033 SLP154 P0000 60000 T11171128 56016
PASC 131953Z 07028KT 3/4SM R06/3500V4000FT -SN BLSN BR OVC006 M12/M13 A2999 RMK AO2 PK WND 08033/1901 SLP157 P0000 T11171128
PASC 131853Z 07028KT 1/2SM R06/3000V4000FT -SN BLSN BR VV006 M12/M13 A3001 RMK AO2 PK WND 07034/1839 SNB53 SLP164 P0000 T11171128
PASC 131753Z 07027KT 3/4SM R06/3000V4000FT BLSN BR OVC006 M11/M12 A3003 RMK AO2 PK WND 06030/1752 SLP170 60000 T11111122 11111 21117 58014
PASC 131653Z 07023KT 3/4SM R06/3500V4000FT BLSN BR OVC005 M11/M12 A3005 RMK AO2 PK WND 08031/1612 SLP178 T11111122
PASC 131553Z 07027KT 3/4SM R06/3500V5000FT BLSN BR OVC005 M11/M12 A3005 RMK AO2 PK WND 07031/1518 SLP179 T11111122
PASC 131453Z 07023KT 3/4SM R06/3500V4500FT BLSN BR OVC005 M11/M12 A3007 RMK AO2 PK WND 07032/1354 SNE46 SLP184 P0000 60000 T11111122 53001
PASC 131353Z 07028KT 1/2SM R06/3000V4000FT -SN BLSN FZFG OVC006 M12/M13 A3004 RMK AO2 PK WND 07033/1328 SLP175 P0000 T11171128
PASC 131334Z 07027G33KT 1/2SM R06/3500V4500FT -SN BLSN FZFG OVC007 M12/M13 A3005 RMK AO2 PK WND 07033/1328 P0000 T11171128
PASC 131253Z 07027KT 1/2SM R06/2800V4000FT -SN BLSN FZFG OVC004 M11/M12 A3006 RMK AO2 PK WND 06032/1232 SNB10 SLP179 P0000 T11111122
PASC 131226Z 07023KT 1/2SM R06/2800V3500FT -SN BLSN FZFG OVC004 M11/M12 A3006 RMK AO2 PK WND 07029/1213 SNB10 P0000 T11111122
PASC 131153Z 07023KT 3/4SM R06/3500V5000FT BLSN BR OVC005 M12/M13 A3007 RMK AO2 PK WND 07028/1142 SNB03E52 SLP183 P0000 60000 T11171128 11117 21122 50006
PASC 131053Z 07021KT 1SM R06/4500V5500FT BLSN BR OVC005 M12/M13 A3007 RMK AO2 PK WND 07027/1010 SNE53 SLP186 P0000 T11171128
PASC 130953Z 07021KT 3/4SM R06/4000V4500FT -SN BLSN BR OVC005 M12/M13 A3006 RMK AO2 PK WND 07027/0909 SLP181 P0000 T11171128
PASC 130853Z 07021KT 1SM R06/4000V6000FT -SN BLSN BR OVC006 M12/M13 A3005 RMK AO2 PK WND 07027/0841 SLP177 P0000 60000 T11221133 411221139 51014
PASC 130753Z 06020KT 1SM R06/5000VP6000FT -SN BLSN BR OVC006 M12/M13 A3004 RMK AO2 SLP173 P0000 T11221133
PASC 130653Z 06020KT 3/4SM R06/3500V5000FT -SN BLSN BR OVC006 M12/M13 A3003 RMK AO2 PK WND 07027/0602 SLP169 P0000 T11221133
PASC 130553Z 07020KT 1SM R06/4000V5500FT -SN BLSN BR OVC005 M12/M13 A3001 RMK AO2 PK WND 06027/0509 SLP164 P0000 60000 T11221133 11122 21133 51014
PASC 130453Z 06022KT 1SM R06/4500V6000FT -SN BLSN BR OVC006 M12/M13 A2999 RMK AO2 PK WND 07027/0413 SLP157 P0000 T11221133
PASC 130353Z 07018KT 1SM R06/4500V6000FT -SN BLSN BR OVC006 M13/M14 A2999 RMK AO2 PK WND 07028/0308 SLP158 P0000 T11281139
PASC 130253Z 07022G28KT 1SM R06/5000V5500FT -SN BLSN BR OVC007 M13/M14 A2997 RMK AO2 PK WND 07028/0249 SNB31 SLP149 P0000 60000 T11281144 53006
PASC 130232Z 07021KT 1 1/2SM -SN BLSN BR OVC008 M13/M14 A2996 RMK AO2 PK WND 07028/0229 SNB31 P0000 T11281144
PASC 130212Z 06021KT 2 1/2SM BLSN BR OVC008 M13/M14 A2995 RMK AO2 PK WND 07026/0202 T11281144
PASC 130153Z 07021KT 3SM BLSN BR OVC008 M13/M14 A2995 RMK AO2 PK WND 07026/0141 SLP145 T11331144
PASC 130053Z 07022KT 4SM BLSN BR OVC010 M13/M15 A2995 RMK AO2 PK WND 06028/0019 SLP143 T11331150
PASC 122353Z AUTO 06023KT 4SM BLSN BR OVC011 M13/M15 A2995 RMK AO2 PK WND 07029/2330 SLP144 60000 T11331150 11133 21139 51016 TSNO
PASC 122253Z 06019KT 5SM BLSN BR OVC012 M13/M15 A2994 RMK AO2 SLP141 T11331150
PASC 122153Z 06020KT 3SM BLSN BR OVC012 M14/M15 A2992 RMK AO2 PK WND 07027/2118 SNE53 SLP133 P0000 T11391150
PASC 122053Z 07020KT 2 1/2SM -SN BLSN BR OVC012 M14/M15 A2990 RMK AO2 PK WND 06029/2023 SLP127 P0000 60000 T11391150 53015
PASC 122034Z 07021KT 2SM -SN BLSN BR OVC012 M14/M15 A2990 RMK AO2 PK WND 06029/2023 P0000 T11391150
PASC 121953Z 07023KT 1 1/4SM R05/6000VP6000FT -SN BLSN BR OVC011 M14/M15 A2989 RMK AO2 PK WND 07030/1907 SLP122 P0000 T11391150
PASC 121935Z 07023KT 1 1/4SM -SN BLSN BR OVC010 M13/M15 A2988 RMK AO2 PK WND 07030/1907 P0000 T11331150
PASC 121900Z 07025KT 1SM R05/4500VP6000FT -SN BLSN BR VV008 M13/M15 A2987 RMK AO2 PK WND 07029/1857 P0000 T11331150
PASC 121853Z 07024KT 3/4SM R05/5000VP6000FT -SN BLSN BR VV008 M13/M15 A2987 RMK AO2 PK WND 06030/1759 SLP116 P0000 T11331150
PASC 121753Z 07025KT 3/4SM R05/4000V5000FT -SN BLSN BR VV009 M13/M15 A2986 RMK AO2 PK WND 07029/1753 SLP112 P0000 60000 T11331150 11133 21139 51010
PASC 121728Z 07025KT 3/4SM R05/3500V5000FT -SN BLSN BR VV006 M13/M15 A2985 RMK AO2 PK WND 07028/1718 P0000 T11331150
PASC 121653Z 07022KT 1 1/4SM R05/5500VP6000FT -SN BR OVC007 M13/M15 A2985 RMK AO2 PK WND 07029/1623 UPB03E05SNB06 SLP111 P0000 T11331150
PASC 121553Z 07024KT 1 3/4SM BR OVC009 M14/M15 A2984 RMK AO2 PK WND 07030/1539 SLP106 T11391150
PASC 121539Z 07025KT 1 3/4SM BR OVC009 M14/M15 A2984 RMK AO2 PK WND 07030/1539 T11391150
PASC 121530Z 07026KT 1 3/4SM BR OVC010 M14/M15 A2983 RMK AO2 PK WND 07029/1504 T11391150
PASC 121453Z 07022KT 3SM BR OVC010 M14/M15 A2983 RMK AO2 PK WND 07029/1448 SLP102 60000 T11391150 58003